sensor_id;sensor_type;location;lat;lon;timestamp;temperature;humidity
15450;DHT22;7826;49.784;9.934;2022-09-20T00:00:46;9.50;1.00
15450;DHT22;7826;49.784;9.934;2022-09-20T00:03:14;9.50;1.00
15450;DHT22;7826;49.784;9.934;2022-09-20T00:05:43;9.50;1.00
15450;DHT22;7826;49.784;9.934;2022-09-20T00:08:13;9.50;1.00
15450;DHT22;7826;49.784;9.934;2022-09-20T00:10:40;9.50;1.00
15450;DHT22;7826;49.784;9.934;2022-09-20T00:13:11;9.50;1.00
15450;DHT22;7826;49.784;9.934;2022-09-20T00:15:43;9.50;1.00
15450;DHT22;7826;49.784;9.934;2022-09-20T00:18:10;9.50;1.00
15450;DHT22;7826;49.784;9.934;2022-09-20T00:20:43;9.50;1.00
15450;DHT22;7826;49.784;9.934;2022-09-20T00:23:10;9.50;1.00
15450;DHT22;7826;49.784;9.934;2022-09-20T00:25:36;9.50;1.00
15450;DHT22;7826;49.784;9.934;2022-09-20T00:28:02;9.50;1.00
15450;DHT22;7826;49.784;9.934;2022-09-20T00:30:28;9.40;1.00
15450;DHT22;7826;49.784;9.934;2022-09-20T00:32:56;9.40;1.00
15450;DHT22;7826;49.784;9.934;2022-09-20T00:35:23;9.50;1.00
15450;DHT22;7826;49.784;9.934;2022-09-20T00:37:49;9.50;1.00
15450;DHT22;7826;49.784;9.934;2022-09-20T00:40:18;9.40;1.00
15450;DHT22;7826;49.784;9.934;2022-09-20T00:42:46;9.40;1.00
15450;DHT22;7826;49.784;9.934;2022-09-20T00:45:29;9.40;1.00
15450;DHT22;7826;49.784;9.934;2022-09-20T00:48:14;9.40;1.00
15450;DHT22;7826;49.784;9.934;2022-09-20T00:50:48;9.40;1.00
15450;DHT22;7826;49.784;9.934;2022-09-20T00:53:32;9.40;1.00
15450;DHT22;7826;49.784;9.934;2022-09-20T00:56:09;9.30;1.00
15450;DHT22;7826;49.784;9.934;2022-09-20T00:58:50;9.30;1.00
15450;DHT22;7826;49.784;9.934;2022-09-20T01:01:20;9.40;1.00
15450;DHT22;7826;49.784;9.934;2022-09-20T01:03:47;9.40;1.00
15450;DHT22;7826;49.784;9.934;2022-09-20T01:06:15;9.40;1.00
15450;DHT22;7826;49.784;9.934;2022-09-20T01:08:45;9.40;1.00
15450;DHT22;7826;49.784;9.934;2022-09-20T01:11:13;9.30;1.00
15450;DHT22;7826;49.784;9.934;2022-09-20T01:13:39;9.40;1.00
15450;DHT22;7826;49.784;9.934;2022-09-20T01:16:06;9.30;1.00
15450;DHT22;7826;49.784;9.934;2022-09-20T01:18:33;9.40;1.00
15450;DHT22;7826;49.784;9.934;2022-09-20T01:21:02;9.40;1.00
15450;DHT22;7826;49.784;9.934;2022-09-20T01:23:45;9.40;1.00
15450;DHT22;7826;49.784;9.934;2022-09-20T01:26:26;9.40;1.00
15450;DHT22;7826;49.784;9.934;2022-09-20T01:31:55;9.50;1.00
15450;DHT22;7826;49.784;9.934;2022-09-20T01:34:34;9.40;1.00
15450;DHT22;7826;49.784;9.934;2022-09-20T01:39:54;9.50;1.00
15450;DHT22;7826;49.784;9.934;2022-09-20T01:42:28;9.50;1.00
15450;DHT22;7826;49.784;9.934;2022-09-20T01:47:40;9.50;1.00
15450;DHT22;7826;49.784;9.934;2022-09-20T01:50:21;9.50;1.00
15450;DHT22;7826;49.784;9.934;2022-09-20T02:07:30;9.30;1.00
15450;DHT22;7826;49.784;9.934;2022-09-20T02:15:32;9.20;1.00
15450;DHT22;7826;49.784;9.934;2022-09-20T02:18:20;9.20;1.00
15450;DHT22;7826;49.784;9.934;2022-09-20T02:20:55;9.10;1.00
15450;DHT22;7826;49.784;9.934;2022-09-20T02:35:31;9.00;1.00
15450;DHT22;7826;49.784;9.934;2022-09-20T02:51:51;8.70;1.00
15450;DHT22;7826;49.784;9.934;2022-09-20T02:56:55;8.60;1.00
15450;DHT22;7826;49.784;9.934;2022-09-20T03:27:34;8.50;1.00
15450;DHT22;7826;49.784;9.934;2022-09-20T03:47:44;8.50;1.00
15450;DHT22;7826;49.784;9.934;2022-09-20T04:07:16;8.30;1.00
15450;DHT22;7826;49.784;9.934;2022-09-20T04:18:44;8.20;1.00
15450;DHT22;7826;49.784;9.934;2022-09-20T04:24:11;8.20;1.00
15450;DHT22;7826;49.784;9.934;2022-09-20T04:26:44;8.20;1.00
15450;DHT22;7826;49.784;9.934;2022-09-20T04:29:26;8.10;1.00
15450;DHT22;7826;49.784;9.934;2022-09-20T04:34:50;8.10;1.00
15450;DHT22;7826;49.784;9.934;2022-09-20T04:37:39;8.10;1.00
15450;DHT22;7826;49.784;9.934;2022-09-20T04:40:25;8.00;1.00
15450;DHT22;7826;49.784;9.934;2022-09-20T04:46:18;8.10;1.00
15450;DHT22;7826;49.784;9.934;2022-09-20T05:20:58;8.30;1.00
15450;DHT22;7826;49.784;9.934;2022-09-20T05:23:31;8.40;1.00
15450;DHT22;7826;49.784;9.934;2022-09-20T05:32:07;8.50;1.00
15450;DHT22;7826;49.784;9.934;2022-09-20T05:34:43;8.50;1.00
15450;DHT22;7826;49.784;9.934;2022-09-20T05:37:40;8.60;1.00
15450;DHT22;7826;49.784;9.934;2022-09-20T05:40:32;8.60;1.00
15450;DHT22;7826;49.784;9.934;2022-09-20T05:43:10;8.60;1.00
15450;DHT22;7826;49.784;9.934;2022-09-20T05:51:44;8.60;1.00
15450;DHT22;7826;49.784;9.934;2022-09-20T05:54:42;8.70;1.00
15450;DHT22;7826;49.784;9.934;2022-09-20T05:57:27;8.80;1.00
15450;DHT22;7826;49.784;9.934;2022-09-20T06:00:06;8.90;1.00
15450;DHT22;7826;49.784;9.934;2022-09-20T06:02:45;9.00;1.00
15450;DHT22;7826;49.784;9.934;2022-09-20T06:10:36;9.00;1.00
15450;DHT22;7826;49.784;9.934;2022-09-20T06:13:17;9.10;1.00
15450;DHT22;7826;49.784;9.934;2022-09-20T06:16:02;9.10;1.00
15450;DHT22;7826;49.784;9.934;2022-09-20T06:19:00;9.10;1.00
15450;DHT22;7826;49.784;9.934;2022-09-20T06:26:49;9.00;1.00
15450;DHT22;7826;49.784;9.934;2022-09-20T06:29:21;9.00;1.00
15450;DHT22;7826;49.784;9.934;2022-09-20T06:31:52;9.10;1.00
15450;DHT22;7826;49.784;9.934;2022-09-20T06:34:18;9.10;1.00
15450;DHT22;7826;49.784;9.934;2022-09-20T06:36:49;9.20;1.00
15450;DHT22;7826;49.784;9.934;2022-09-20T06:42:25;9.20;1.00
15450;DHT22;7826;49.784;9.934;2022-09-20T06:44:52;9.30;1.00
15450;DHT22;7826;49.784;9.934;2022-09-20T06:47:18;9.50;1.00
15450;DHT22;7826;49.784;9.934;2022-09-20T06:49:44;9.50;1.00
15450;DHT22;7826;49.784;9.934;2022-09-20T06:52:13;9.60;1.00
15450;DHT22;7826;49.784;9.934;2022-09-20T06:54:45;9.60;1.00
15450;DHT22;7826;49.784;9.934;2022-09-20T06:57:31;9.70;1.00
15450;DHT22;7826;49.784;9.934;2022-09-20T06:59:58;9.90;1.00
15450;DHT22;7826;49.784;9.934;2022-09-20T07:02:26;10.40;1.00
15450;DHT22;7826;49.784;9.934;2022-09-20T07:04:52;10.30;1.00
15450;DHT22;7826;49.784;9.934;2022-09-20T07:07:20;10.00;1.00
15450;DHT22;7826;49.784;9.934;2022-09-20T07:09:46;10.00;1.00
15450;DHT22;7826;49.784;9.934;2022-09-20T07:12:12;10.00;1.00
15450;DHT22;7826;49.784;9.934;2022-09-20T07:14:39;10.00;1.00
15450;DHT22;7826;49.784;9.934;2022-09-20T07:17:05;10.10;1.00
15450;DHT22;7826;49.784;9.934;2022-09-20T07:19:32;10.20;1.00
15450;DHT22;7826;49.784;9.934;2022-09-20T07:21:58;10.20;1.00
15450;DHT22;7826;49.784;9.934;2022-09-20T07:24:25;10.10;1.00
15450;DHT22;7826;49.784;9.934;2022-09-20T07:26:59;10.30;1.00
15450;DHT22;7826;49.784;9.934;2022-09-20T07:29:27;10.40;1.00
15450;DHT22;7826;49.784;9.934;2022-09-20T07:31:54;10.60;1.00
15450;DHT22;7826;49.784;9.934;2022-09-20T07:34:20;10.60;1.00
15450;DHT22;7826;49.784;9.934;2022-09-20T07:36:48;10.40;1.00
15450;DHT22;7826;49.784;9.934;2022-09-20T07:39:16;10.60;1.00
15450;DHT22;7826;49.784;9.934;2022-09-20T07:41:42;10.60;1.00
15450;DHT22;7826;49.784;9.934;2022-09-20T07:44:16;10.60;1.00
15450;DHT22;7826;49.784;9.934;2022-09-20T07:46:50;10.40;1.00
15450;DHT22;7826;49.784;9.934;2022-09-20T07:49:17;10.70;1.00
15450;DHT22;7826;49.784;9.934;2022-09-20T07:51:44;11.20;1.00
15450;DHT22;7826;49.784;9.934;2022-09-20T07:54:10;11.50;1.00
15450;DHT22;7826;49.784;9.934;2022-09-20T07:56:38;11.90;1.00
15450;DHT22;7826;49.784;9.934;2022-09-20T07:59:04;12.30;1.00
15450;DHT22;7826;49.784;9.934;2022-09-20T08:01:31;12.30;1.00
15450;DHT22;7826;49.784;9.934;2022-09-20T08:03:57;12.40;1.00
15450;DHT22;7826;49.784;9.934;2022-09-20T08:06:24;12.90;1.00
15450;DHT22;7826;49.784;9.934;2022-09-20T08:08:52;13.00;1.00
15450;DHT22;7826;49.784;9.934;2022-09-20T08:11:21;13.10;1.00
15450;DHT22;7826;49.784;9.934;2022-09-20T08:13:52;13.10;1.00
15450;DHT22;7826;49.784;9.934;2022-09-20T08:16:19;12.80;1.00
15450;DHT22;7826;49.784;9.934;2022-09-20T08:18:48;12.80;1.00
15450;DHT22;7826;49.784;9.934;2022-09-20T08:21:15;12.40;1.00
15450;DHT22;7826;49.784;9.934;2022-09-20T08:23:43;12.00;99.90
15450;DHT22;7826;49.784;9.934;2022-09-20T08:26:11;11.90;1.00
15450;DHT22;7826;49.784;9.934;2022-09-20T08:28:40;11.90;99.90
15450;DHT22;7826;49.784;9.934;2022-09-20T08:31:14;11.80;99.90
15450;DHT22;7826;49.784;9.934;2022-09-20T08:33:42;11.80;99.90
15450;DHT22;7826;49.784;9.934;2022-09-20T08:36:23;11.70;99.90
15450;DHT22;7826;49.784;9.934;2022-09-20T08:38:50;11.80;99.50
15450;DHT22;7826;49.784;9.934;2022-09-20T08:41:25;11.80;1.00
15450;DHT22;7826;49.784;9.934;2022-09-20T08:43:55;11.80;26.80
15450;DHT22;7826;49.784;9.934;2022-09-20T08:46:26;11.80;99.90
15450;DHT22;7826;49.784;9.934;2022-09-20T08:48:55;11.90;1.00
15450;DHT22;7826;49.784;9.934;2022-09-20T08:51:22;11.90;99.90
15450;DHT22;7826;49.784;9.934;2022-09-20T08:53:52;12.00;1.00
15450;DHT22;7826;49.784;9.934;2022-09-20T08:56:19;12.10;1.00
15450;DHT22;7826;49.784;9.934;2022-09-20T08:58:48;12.20;1.00
15450;DHT22;7826;49.784;9.934;2022-09-20T09:01:20;12.20;99.90
15450;DHT22;7826;49.784;9.934;2022-09-20T09:03:50;12.20;1.00
15450;DHT22;7826;49.784;9.934;2022-09-20T09:06:19;12.20;1.00
15450;DHT22;7826;49.784;9.934;2022-09-20T09:08:46;12.20;1.00
15450;DHT22;7826;49.784;9.934;2022-09-20T09:11:18;12.30;1.00
15450;DHT22;7826;49.784;9.934;2022-09-20T09:16:57;12.20;99.90
15450;DHT22;7826;49.784;9.934;2022-09-20T09:19:30;12.20;99.90
15450;DHT22;7826;49.784;9.934;2022-09-20T09:22:00;12.20;99.90
15450;DHT22;7826;49.784;9.934;2022-09-20T09:24:28;12.20;99.90
15450;DHT22;7826;49.784;9.934;2022-09-20T09:27:17;12.20;99.90
15450;DHT22;7826;49.784;9.934;2022-09-20T09:29:52;12.30;1.00
15450;DHT22;7826;49.784;9.934;2022-09-20T09:32:27;12.30;1.00
15450;DHT22;7826;49.784;9.934;2022-09-20T09:34:55;12.20;1.00
15450;DHT22;7826;49.784;9.934;2022-09-20T09:37:29;12.30;99.90
15450;DHT22;7826;49.784;9.934;2022-09-20T09:40:13;12.40;99.90
15450;DHT22;7826;49.784;9.934;2022-09-20T09:42:52;12.60;99.90
15450;DHT22;7826;49.784;9.934;2022-09-20T09:45:31;12.80;64.20
15450;DHT22;7826;49.784;9.934;2022-09-20T09:48:00;13.10;1.00
15450;DHT22;7826;49.784;9.934;2022-09-20T09:50:32;13.30;1.00
15450;DHT22;7826;49.784;9.934;2022-09-20T09:53:08;13.40;1.00
15450;DHT22;7826;49.784;9.934;2022-09-20T10:11:03;13.50;1.00
15450;DHT22;7826;49.784;9.934;2022-09-20T10:19:15;14.40;1.00
15450;DHT22;7826;49.784;9.934;2022-09-20T10:24:26;14.90;1.00
15450;DHT22;7826;49.784;9.934;2022-09-20T10:30:06;15.10;99.90
15450;DHT22;7826;49.784;9.934;2022-09-20T10:40:50;15.40;99.90
15450;DHT22;7826;49.784;9.934;2022-09-20T10:49:57;15.70;99.90
15450;DHT22;7826;49.784;9.934;2022-09-20T11:08:46;14.60;96.90
15450;DHT22;7826;49.784;9.934;2022-09-20T11:11:24;14.70;99.90
15450;DHT22;7826;49.784;9.934;2022-09-20T11:22:15;15.20;99.90
15450;DHT22;7826;49.784;9.934;2022-09-20T11:27:37;15.00;99.90
15450;DHT22;7826;49.784;9.934;2022-09-20T11:30:19;14.90;99.90
15450;DHT22;7826;49.784;9.934;2022-09-20T11:32:58;14.80;99.90
15450;DHT22;7826;49.784;9.934;2022-09-20T11:35:39;14.70;99.90
15450;DHT22;7826;49.784;9.934;2022-09-20T11:41:05;14.60;99.90
15450;DHT22;7826;49.784;9.934;2022-09-20T11:43:33;14.70;99.90
15450;DHT22;7826;49.784;9.934;2022-09-20T11:46:04;14.80;99.90
15450;DHT22;7826;49.784;9.934;2022-09-20T11:48:41;14.90;99.90
15450;DHT22;7826;49.784;9.934;2022-09-20T11:57:14;14.40;99.90
15450;DHT22;7826;49.784;9.934;2022-09-20T11:59:48;14.30;99.90
15450;DHT22;7826;49.784;9.934;2022-09-20T12:02:17;14.30;99.90
15450;DHT22;7826;49.784;9.934;2022-09-20T12:04:46;14.40;99.90
15450;DHT22;7826;49.784;9.934;2022-09-20T12:07:27;14.60;99.90
15450;DHT22;7826;49.784;9.934;2022-09-20T12:09:56;14.70;99.90
15450;DHT22;7826;49.784;9.934;2022-09-20T12:12:43;14.90;99.90
15450;DHT22;7826;49.784;9.934;2022-09-20T12:15:35;15.10;99.90
15450;DHT22;7826;49.784;9.934;2022-09-20T12:18:14;15.30;99.90
15450;DHT22;7826;49.784;9.934;2022-09-20T12:21:02;15.50;99.90
15450;DHT22;7826;49.784;9.934;2022-09-20T12:26:09;16.10;99.90
15450;DHT22;7826;49.784;9.934;2022-09-20T12:33:59;16.70;99.90
15450;DHT22;7826;49.784;9.934;2022-09-20T12:36:28;16.60;99.90
15450;DHT22;7826;49.784;9.934;2022-09-20T12:41:57;16.60;99.90
15450;DHT22;7826;49.784;9.934;2022-09-20T12:47:18;16.30;99.90
15450;DHT22;7826;49.784;9.934;2022-09-20T12:55:35;15.40;99.90
15450;DHT22;7826;49.784;9.934;2022-09-20T13:05:48;14.10;99.90
15450;DHT22;7826;49.784;9.934;2022-09-20T13:08:28;13.90;99.90
15450;DHT22;7826;49.784;9.934;2022-09-20T13:14:19;13.80;99.90
15450;DHT22;7826;49.784;9.934;2022-09-20T13:19:37;13.70;99.90
15450;DHT22;7826;49.784;9.934;2022-09-20T13:22:13;13.60;99.90
15450;DHT22;7826;49.784;9.934;2022-09-20T13:24:45;13.60;99.90
15450;DHT22;7826;49.784;9.934;2022-09-20T13:27:23;13.60;99.90
15450;DHT22;7826;49.784;9.934;2022-09-20T13:29:50;13.50;99.90
15450;DHT22;7826;49.784;9.934;2022-09-20T13:32:27;13.50;99.90
15450;DHT22;7826;49.784;9.934;2022-09-20T13:35:17;13.50;99.90
15450;DHT22;7826;49.784;9.934;2022-09-20T13:38:00;13.50;99.90
15450;DHT22;7826;49.784;9.934;2022-09-20T13:40:34;13.60;99.90
15450;DHT22;7826;49.784;9.934;2022-09-20T13:43:02;13.50;99.90
15450;DHT22;7826;49.784;9.934;2022-09-20T13:45:30;13.60;99.90
15450;DHT22;7826;49.784;9.934;2022-09-20T13:47:59;13.70;99.90
15450;DHT22;7826;49.784;9.934;2022-09-20T13:50:32;13.70;99.90
15450;DHT22;7826;49.784;9.934;2022-09-20T13:53:11;13.70;99.90
15450;DHT22;7826;49.784;9.934;2022-09-20T13:55:39;13.70;99.90
15450;DHT22;7826;49.784;9.934;2022-09-20T14:00:58;13.60;99.90
15450;DHT22;7826;49.784;9.934;2022-09-20T14:03:26;13.40;99.90
15450;DHT22;7826;49.784;9.934;2022-09-20T14:05:56;13.30;99.90
15450;DHT22;7826;49.784;9.934;2022-09-20T14:08:27;13.20;99.90
15450;DHT22;7826;49.784;9.934;2022-09-20T14:11:13;13.20;99.90
15450;DHT22;7826;49.784;9.934;2022-09-20T14:13:42;13.10;99.90
15450;DHT22;7826;49.784;9.934;2022-09-20T14:16:10;13.10;99.90
15450;DHT22;7826;49.784;9.934;2022-09-20T14:18:39;13.00;99.90
15450;DHT22;7826;49.784;9.934;2022-09-20T14:21:10;13.00;99.90
15450;DHT22;7826;49.784;9.934;2022-09-20T14:23:57;13.10;99.90
15450;DHT22;7826;49.784;9.934;2022-09-20T14:26:36;13.20;99.90
15450;DHT22;7826;49.784;9.934;2022-09-20T14:29:29;13.30;99.90
15450;DHT22;7826;49.784;9.934;2022-09-20T14:31:57;13.40;99.90
15450;DHT22;7826;49.784;9.934;2022-09-20T14:34:24;13.50;99.90
15450;DHT22;7826;49.784;9.934;2022-09-20T14:36:58;13.40;99.90
15450;DHT22;7826;49.784;9.934;2022-09-20T14:39:27;13.50;99.90
15450;DHT22;7826;49.784;9.934;2022-09-20T14:41:53;13.40;99.90
15450;DHT22;7826;49.784;9.934;2022-09-20T14:46:46;13.20;99.90
15450;DHT22;7826;49.784;9.934;2022-09-20T14:57:40;12.90;99.90
15450;DHT22;7826;49.784;9.934;2022-09-20T15:00:25;12.80;99.90
15450;DHT22;7826;49.784;9.934;2022-09-20T15:03:11;12.90;99.90
15450;DHT22;7826;49.784;9.934;2022-09-20T15:05:58;12.80;99.90
15450;DHT22;7826;49.784;9.934;2022-09-20T15:08:42;12.90;99.90
15450;DHT22;7826;49.784;9.934;2022-09-20T15:11:27;12.80;99.90
15450;DHT22;7826;49.784;9.934;2022-09-20T15:14:13;12.70;99.90
15450;DHT22;7826;49.784;9.934;2022-09-20T15:16:58;12.50;99.90
15450;DHT22;7826;49.784;9.934;2022-09-20T15:19:44;12.30;99.90
15450;DHT22;7826;49.784;9.934;2022-09-20T15:22:29;12.20;99.90
15450;DHT22;7826;49.784;9.934;2022-09-20T15:25:18;12.20;99.90
15450;DHT22;7826;49.784;9.934;2022-09-20T15:28:04;12.20;99.90
15450;DHT22;7826;49.784;9.934;2022-09-20T15:30:50;12.30;1.00
15450;DHT22;7826;49.784;9.934;2022-09-20T15:33:35;12.30;1.00
15450;DHT22;7826;49.784;9.934;2022-09-20T15:36:02;12.30;99.90
15450;DHT22;7826;49.784;9.934;2022-09-20T15:38:29;12.40;99.90
15450;DHT22;7826;49.784;9.934;2022-09-20T15:40:55;12.30;99.90
15450;DHT22;7826;49.784;9.934;2022-09-20T15:43:22;12.30;99.90
15450;DHT22;7826;49.784;9.934;2022-09-20T15:45:56;12.30;99.90
15450;DHT22;7826;49.784;9.934;2022-09-20T15:48:27;12.30;99.90
15450;DHT22;7826;49.784;9.934;2022-09-20T15:53:40;12.30;99.90
15450;DHT22;7826;49.784;9.934;2022-09-20T15:56:21;12.40;99.90
15450;DHT22;7826;49.784;9.934;2022-09-20T15:58:50;12.40;99.90
15450;DHT22;7826;49.784;9.934;2022-09-20T16:01:17;12.40;99.90
15450;DHT22;7826;49.784;9.934;2022-09-20T16:03:45;12.30;99.90
15450;DHT22;7826;49.784;9.934;2022-09-20T16:06:12;12.30;99.90
15450;DHT22;7826;49.784;9.934;2022-09-20T16:08:40;12.30;99.90
15450;DHT22;7826;49.784;9.934;2022-09-20T16:11:09;12.30;99.90
15450;DHT22;7826;49.784;9.934;2022-09-20T16:13:37;12.20;99.90
15450;DHT22;7826;49.784;9.934;2022-09-20T16:16:05;12.20;99.90
15450;DHT22;7826;49.784;9.934;2022-09-20T16:18:32;12.20;99.90
15450;DHT22;7826;49.784;9.934;2022-09-20T16:21:18;12.20;99.90
15450;DHT22;7826;49.784;9.934;2022-09-20T16:23:53;12.20;99.90
15450;DHT22;7826;49.784;9.934;2022-09-20T16:26:22;12.20;99.90
15450;DHT22;7826;49.784;9.934;2022-09-20T16:28:48;12.20;99.90
15450;DHT22;7826;49.784;9.934;2022-09-20T16:33:56;12.10;99.90
15450;DHT22;7826;49.784;9.934;2022-09-20T16:36:23;12.20;99.90
15450;DHT22;7826;49.784;9.934;2022-09-20T16:38:53;12.20;99.90
15450;DHT22;7826;49.784;9.934;2022-09-20T16:41:21;12.20;99.90
15450;DHT22;7826;49.784;9.934;2022-09-20T16:43:48;12.20;99.90
15450;DHT22;7826;49.784;9.934;2022-09-20T16:46:20;12.20;99.90
15450;DHT22;7826;49.784;9.934;2022-09-20T16:48:47;12.20;99.90
15450;DHT22;7826;49.784;9.934;2022-09-20T16:51:24;12.20;99.90
15450;DHT22;7826;49.784;9.934;2022-09-20T16:53:51;12.20;99.90
15450;DHT22;7826;49.784;9.934;2022-09-20T16:56:23;12.20;99.90
15450;DHT22;7826;49.784;9.934;2022-09-20T16:58:50;12.10;99.90
15450;DHT22;7826;49.784;9.934;2022-09-20T17:01:16;12.10;99.90
15450;DHT22;7826;49.784;9.934;2022-09-20T17:03:44;12.00;99.90
15450;DHT22;7826;49.784;9.934;2022-09-20T17:06:11;12.00;99.90
15450;DHT22;7826;49.784;9.934;2022-09-20T17:08:38;12.00;99.90
15450;DHT22;7826;49.784;9.934;2022-09-20T17:11:26;12.00;99.90
15450;DHT22;7826;49.784;9.934;2022-09-20T17:13:53;11.90;99.90
15450;DHT22;7826;49.784;9.934;2022-09-20T17:16:23;11.90;99.90
15450;DHT22;7826;49.784;9.934;2022-09-20T17:18:57;11.90;99.90
15450;DHT22;7826;49.784;9.934;2022-09-20T17:21:24;11.80;99.90
15450;DHT22;7826;49.784;9.934;2022-09-20T17:23:53;11.70;99.90
15450;DHT22;7826;49.784;9.934;2022-09-20T17:26:22;11.70;1.00
15450;DHT22;7826;49.784;9.934;2022-09-20T17:28:51;11.70;1.00
15450;DHT22;7826;49.784;9.934;2022-09-20T17:31:26;11.50;1.00
15450;DHT22;7826;49.784;9.934;2022-09-20T17:33:57;11.40;1.00
15450;DHT22;7826;49.784;9.934;2022-09-20T17:36:30;11.40;1.00
15450;DHT22;7826;49.784;9.934;2022-09-20T17:38:59;11.40;99.90
15450;DHT22;7826;49.784;9.934;2022-09-20T17:41:27;11.40;99.90
15450;DHT22;7826;49.784;9.934;2022-09-20T17:43:57;11.40;1.00
15450;DHT22;7826;49.784;9.934;2022-09-20T17:46:28;11.30;1.00
15450;DHT22;7826;49.784;9.934;2022-09-20T17:48:58;11.40;1.00
15450;DHT22;7826;49.784;9.934;2022-09-20T17:52:11;11.30;1.00
15450;DHT22;7826;49.784;9.934;2022-09-20T17:54:19;11.30;99.90
15450;DHT22;7826;49.784;9.934;2022-09-20T17:56:48;11.30;99.90
15450;DHT22;7826;49.784;9.934;2022-09-20T17:59:16;11.30;99.90
15450;DHT22;7826;49.784;9.934;2022-09-20T18:01:45;11.30;99.90
15450;DHT22;7826;49.784;9.934;2022-09-20T18:04:12;11.30;99.90
15450;DHT22;7826;49.784;9.934;2022-09-20T18:06:44;11.30;99.90
15450;DHT22;7826;49.784;9.934;2022-09-20T18:09:13;11.20;1.00
15450;DHT22;7826;49.784;9.934;2022-09-20T18:11:42;11.20;1.00
15450;DHT22;7826;49.784;9.934;2022-09-20T18:14:10;11.20;1.00
15450;DHT22;7826;49.784;9.934;2022-09-20T18:16:36;11.20;1.00
15450;DHT22;7826;49.784;9.934;2022-09-20T18:19:07;11.20;1.00
15450;DHT22;7826;49.784;9.934;2022-09-20T18:21:34;11.20;99.90
15450;DHT22;7826;49.784;9.934;2022-09-20T18:24:04;11.20;99.90
15450;DHT22;7826;49.784;9.934;2022-09-20T18:26:31;11.20;99.90
15450;DHT22;7826;49.784;9.934;2022-09-20T18:29:07;11.20;99.90
15450;DHT22;7826;49.784;9.934;2022-09-20T18:31:38;11.20;99.90
15450;DHT22;7826;49.784;9.934;2022-09-20T18:34:12;11.20;99.90
15450;DHT22;7826;49.784;9.934;2022-09-20T18:36:40;11.20;99.90
15450;DHT22;7826;49.784;9.934;2022-09-20T18:39:07;11.10;99.90
15450;DHT22;7826;49.784;9.934;2022-09-20T18:41:36;11.10;99.90
15450;DHT22;7826;49.784;9.934;2022-09-20T18:44:04;11.10;99.90
15450;DHT22;7826;49.784;9.934;2022-09-20T18:46:33;11.10;99.90
15450;DHT22;7826;49.784;9.934;2022-09-20T18:49:06;11.00;99.90
15450;DHT22;7826;49.784;9.934;2022-09-20T18:51:35;11.00;99.90
15450;DHT22;7826;49.784;9.934;2022-09-20T18:54:03;11.00;99.90
15450;DHT22;7826;49.784;9.934;2022-09-20T18:56:34;11.00;99.90
15450;DHT22;7826;49.784;9.934;2022-09-20T18:59:15;10.90;99.90
15450;DHT22;7826;49.784;9.934;2022-09-20T19:12:56;10.80;1.00
15450;DHT22;7826;49.784;9.934;2022-09-20T19:18:56;10.80;99.90
15450;DHT22;7826;49.784;9.934;2022-09-20T19:27:03;10.70;99.90
15450;DHT22;7826;49.784;9.934;2022-09-20T19:29:29;10.70;99.90
15450;DHT22;7826;49.784;9.934;2022-09-20T19:31:57;10.60;95.60
15450;DHT22;7826;49.784;9.934;2022-09-20T19:34:26;10.50;99.90
15450;DHT22;7826;49.784;9.934;2022-09-20T19:45:38;10.40;99.90
15450;DHT22;7826;49.784;9.934;2022-09-20T19:50:53;10.30;99.90
15450;DHT22;7826;49.784;9.934;2022-09-20T19:53:21;10.30;99.90
15450;DHT22;7826;49.784;9.934;2022-09-20T19:55:52;10.30;99.90
15450;DHT22;7826;49.784;9.934;2022-09-20T19:58:19;10.30;99.90
15450;DHT22;7826;49.784;9.934;2022-09-20T20:00:46;10.30;99.90
15450;DHT22;7826;49.784;9.934;2022-09-20T20:03:13;10.20;99.90
15450;DHT22;7826;49.784;9.934;2022-09-20T20:05:47;10.20;1.00
15450;DHT22;7826;49.784;9.934;2022-09-20T20:08:21;10.20;1.00
15450;DHT22;7826;49.784;9.934;2022-09-20T20:11:02;10.20;1.00
15450;DHT22;7826;49.784;9.934;2022-09-20T20:13:56;10.20;1.00
15450;DHT22;7826;49.784;9.934;2022-09-20T20:24:56;10.10;99.90
15450;DHT22;7826;49.784;9.934;2022-09-20T20:27:23;10.10;99.90
15450;DHT22;7826;49.784;9.934;2022-09-20T20:29:51;10.00;1.00
15450;DHT22;7826;49.784;9.934;2022-09-20T20:32:17;10.00;1.00
15450;DHT22;7826;49.784;9.934;2022-09-20T20:34:43;10.00;1.00
15450;DHT22;7826;49.784;9.934;2022-09-20T20:37:10;9.90;99.90
15450;DHT22;7826;49.784;9.934;2022-09-20T20:39:36;9.90;1.00
15450;DHT22;7826;49.784;9.934;2022-09-20T20:42:04;9.80;99.90
15450;DHT22;7826;49.784;9.934;2022-09-20T20:44:32;9.80;1.00
15450;DHT22;7826;49.784;9.934;2022-09-20T20:47:04;9.70;1.00
15450;DHT22;7826;49.784;9.934;2022-09-20T20:49:36;9.60;1.00
15450;DHT22;7826;49.784;9.934;2022-09-20T20:52:04;9.60;99.90
15450;DHT22;7826;49.784;9.934;2022-09-20T20:54:31;9.50;1.00
15450;DHT22;7826;49.784;9.934;2022-09-20T20:56:58;9.50;1.00
15450;DHT22;7826;49.784;9.934;2022-09-20T20:59:25;9.40;99.90
15450;DHT22;7826;49.784;9.934;2022-09-20T21:01:52;9.40;1.00
15450;DHT22;7826;49.784;9.934;2022-09-20T21:04:18;9.40;1.00
15450;DHT22;7826;49.784;9.934;2022-09-20T21:06:46;9.30;1.00
15450;DHT22;7826;49.784;9.934;2022-09-20T21:09:12;9.30;1.00
15450;DHT22;7826;49.784;9.934;2022-09-20T21:11:40;9.20;99.90
15450;DHT22;7826;49.784;9.934;2022-09-20T21:14:10;9.20;1.00
15450;DHT22;7826;49.784;9.934;2022-09-20T21:16:39;9.10;1.00
15450;DHT22;7826;49.784;9.934;2022-09-20T21:19:08;9.10;99.90
15450;DHT22;7826;49.784;9.934;2022-09-20T21:21:37;9.10;1.00
15450;DHT22;7826;49.784;9.934;2022-09-20T21:24:08;9.00;50.10
15450;DHT22;7826;49.784;9.934;2022-09-20T21:26:35;9.00;99.90
15450;DHT22;7826;49.784;9.934;2022-09-20T21:29:08;9.00;99.90
15450;DHT22;7826;49.784;9.934;2022-09-20T21:31:37;9.00;99.90
15450;DHT22;7826;49.784;9.934;2022-09-20T21:34:06;8.90;1.00
15450;DHT22;7826;49.784;9.934;2022-09-20T21:36:34;8.90;1.00
15450;DHT22;7826;49.784;9.934;2022-09-20T21:39:01;8.90;1.00
15450;DHT22;7826;49.784;9.934;2022-09-20T21:41:29;8.90;1.00
15450;DHT22;7826;49.784;9.934;2022-09-20T21:43:58;8.90;1.00
15450;DHT22;7826;49.784;9.934;2022-09-20T21:46:28;8.80;49.90
15450;DHT22;7826;49.784;9.934;2022-09-20T21:48:56;8.70;74.80
15450;DHT22;7826;49.784;9.934;2022-09-20T21:51:24;8.70;99.90
15450;DHT22;7826;49.784;9.934;2022-09-20T21:53:52;8.70;99.90
15450;DHT22;7826;49.784;9.934;2022-09-20T21:56:26;8.60;99.90
15450;DHT22;7826;49.784;9.934;2022-09-20T21:58:54;8.60;99.90
15450;DHT22;7826;49.784;9.934;2022-09-20T22:01:22;8.60;99.90
15450;DHT22;7826;49.784;9.934;2022-09-20T22:03:51;8.50;99.90
15450;DHT22;7826;49.784;9.934;2022-09-20T22:06:20;8.50;99.90
15450;DHT22;7826;49.784;9.934;2022-09-20T22:08:48;8.50;99.90
15450;DHT22;7826;49.784;9.934;2022-09-20T22:11:16;8.40;99.90
15450;DHT22;7826;49.784;9.934;2022-09-20T22:13:44;8.40;99.90
15450;DHT22;7826;49.784;9.934;2022-09-20T22:16:13;8.40;99.90
15450;DHT22;7826;49.784;9.934;2022-09-20T22:18:41;8.30;1.00
15450;DHT22;7826;49.784;9.934;2022-09-20T22:21:10;8.30;1.00
15450;DHT22;7826;49.784;9.934;2022-09-20T22:23:37;8.30;1.00
15450;DHT22;7826;49.784;9.934;2022-09-20T22:26:10;8.30;1.00
15450;DHT22;7826;49.784;9.934;2022-09-20T22:28:36;8.20;1.00
15450;DHT22;7826;49.784;9.934;2022-09-20T22:31:09;8.20;1.00
15450;DHT22;7826;49.784;9.934;2022-09-20T22:33:40;8.10;1.00
15450;DHT22;7826;49.784;9.934;2022-09-20T22:36:12;8.10;1.00
15450;DHT22;7826;49.784;9.934;2022-09-20T22:38:42;8.10;1.00